sensor_id;sensor_type;location;lat;lon;timestamp;P1;durP1;ratioP1;P2;durP2;ratioP2
6177;SDS011;3122;48.208;11.174;2023-05-10T00:03:16;1.90;;;1.80;;
6177;SDS011;3122;48.208;11.174;2023-05-10T00:08:17;2.30;;;2.10;;
6177;SDS011;3122;48.208;11.174;2023-05-10T00:13:17;1.60;;;1.50;;
6177;SDS011;3122;48.208;11.174;2023-05-10T00:18:18;1.27;;;1.23;;
6177;SDS011;3122;48.208;11.174;2023-05-10T00:23:19;1.20;;;1.20;;
6177;SDS011;3122;48.208;11.174;2023-05-10T00:28:19;1.50;;;1.40;;
6177;SDS011;3122;48.208;11.174;2023-05-10T00:33:20;1.97;;;1.30;;
6177;SDS011;3122;48.208;11.174;2023-05-10T00:38:20;1.30;;;1.20;;
6177;SDS011;3122;48.208;11.174;2023-05-10T00:43:21;1.33;;;1.23;;
6177;SDS011;3122;48.208;11.174;2023-05-10T00:48:21;1.20;;;1.20;;
6177;SDS011;3122;48.208;11.174;2023-05-10T00:53:22;1.53;;;1.43;;
6177;SDS011;3122;48.208;11.174;2023-05-10T00:58:24;1.40;;;1.20;;
6177;SDS011;3122;48.208;11.174;2023-05-10T01:03:28;1.10;;;1.10;;
6177;SDS011;3122;48.208;11.174;2023-05-10T01:08:29;1.20;;;1.10;;
6177;SDS011;3122;48.208;11.174;2023-05-10T01:13:33;0.90;;;0.90;;
6177;SDS011;3122;48.208;11.174;2023-05-10T01:18:40;1.00;;;1.00;;
6177;SDS011;3122;48.208;11.174;2023-05-10T01:34:13;1.20;;;1.10;;
6177;SDS011;3122;48.208;11.174;2023-05-10T01:39:25;1.00;;;1.00;;
6177;SDS011;3122;48.208;11.174;2023-05-10T01:44:37;1.00;;;1.00;;
6177;SDS011;3122;48.208;11.174;2023-05-10T01:49:56;1.13;;;1.13;;
6177;SDS011;3122;48.208;11.174;2023-05-10T01:55:07;1.00;;;1.00;;
6177;SDS011;3122;48.208;11.174;2023-05-10T02:00:13;0.97;;;0.97;;
6177;SDS011;3122;48.208;11.174;2023-05-10T02:05:15;1.47;;;1.10;;
6177;SDS011;3122;48.208;11.174;2023-05-10T02:10:17;1.10;;;1.10;;
6177;SDS011;3122;48.208;11.174;2023-05-10T02:15:20;3.83;;;1.20;;
6177;SDS011;3122;48.208;11.174;2023-05-10T02:20:24;1.07;;;1.07;;
6177;SDS011;3122;48.208;11.174;2023-05-10T02:25:25;2.00;;;1.10;;
6177;SDS011;3122;48.208;11.174;2023-05-10T02:30:28;1.30;;;1.30;;
6177;SDS011;3122;48.208;11.174;2023-05-10T02:35:31;1.30;;;1.20;;
6177;SDS011;3122;48.208;11.174;2023-05-10T02:40:33;2.80;;;2.60;;
6177;SDS011;3122;48.208;11.174;2023-05-10T02:45:36;2.53;;;2.43;;
6177;SDS011;3122;48.208;11.174;2023-05-10T02:50:38;1.33;;;1.33;;
6177;SDS011;3122;48.208;11.174;2023-05-10T02:55:43;1.20;;;1.20;;
6177;SDS011;3122;48.208;11.174;2023-05-10T03:00:47;1.50;;;1.40;;
6177;SDS011;3122;48.208;11.174;2023-05-10T03:05:48;2.80;;;1.30;;
6177;SDS011;3122;48.208;11.174;2023-05-10T03:10:55;1.43;;;1.43;;
6177;SDS011;3122;48.208;11.174;2023-05-10T03:16:25;1.30;;;1.30;;
6177;SDS011;3122;48.208;11.174;2023-05-10T03:21:33;1.20;;;1.20;;
6177;SDS011;3122;48.208;11.174;2023-05-10T03:26:37;1.90;;;1.30;;
6177;SDS011;3122;48.208;11.174;2023-05-10T03:31:38;1.37;;;1.37;;
6177;SDS011;3122;48.208;11.174;2023-05-10T03:36:39;1.77;;;1.67;;
6177;SDS011;3122;48.208;11.174;2023-05-10T03:41:40;1.60;;;1.50;;
6177;SDS011;3122;48.208;11.174;2023-05-10T03:46:41;1.77;;;1.67;;
6177;SDS011;3122;48.208;11.174;2023-05-10T03:51:41;1.47;;;1.47;;
6177;SDS011;3122;48.208;11.174;2023-05-10T03:56:42;1.73;;;1.63;;
6177;SDS011;3122;48.208;11.174;2023-05-10T04:01:42;2.27;;;2.00;;
6177;SDS011;3122;48.208;11.174;2023-05-10T04:06:43;2.00;;;1.90;;
6177;SDS011;3122;48.208;11.174;2023-05-10T04:11:44;1.60;;;1.50;;
6177;SDS011;3122;48.208;11.174;2023-05-10T04:16:45;1.80;;;1.27;;
6177;SDS011;3122;48.208;11.174;2023-05-10T04:21:45;1.10;;;1.10;;
6177;SDS011;3122;48.208;11.174;2023-05-10T04:26:46;1.57;;;1.47;;
6177;SDS011;3122;48.208;11.174;2023-05-10T04:31:47;1.30;;;1.30;;
6177;SDS011;3122;48.208;11.174;2023-05-10T04:36:48;1.50;;;1.40;;
6177;SDS011;3122;48.208;11.174;2023-05-10T04:41:49;1.20;;;1.10;;
6177;SDS011;3122;48.208;11.174;2023-05-10T04:46:49;0.90;;;0.90;;
6177;SDS011;3122;48.208;11.174;2023-05-10T04:51:50;0.80;;;0.80;;
6177;SDS011;3122;48.208;11.174;2023-05-10T04:56:50;0.80;;;0.80;;
6177;SDS011;3122;48.208;11.174;2023-05-10T05:01:51;1.67;;;0.83;;
6177;SDS011;3122;48.208;11.174;2023-05-10T05:06:51;1.17;;;1.00;;
6177;SDS011;3122;48.208;11.174;2023-05-10T05:11:52;1.60;;;1.50;;
6177;SDS011;3122;48.208;11.174;2023-05-10T05:16:53;0.90;;;0.90;;
6177;SDS011;3122;48.208;11.174;2023-05-10T05:21:53;1.63;;;1.47;;
6177;SDS011;3122;48.208;11.174;2023-05-10T05:26:54;1.53;;;1.43;;
6177;SDS011;3122;48.208;11.174;2023-05-10T05:31:55;1.20;;;1.10;;
6177;SDS011;3122;48.208;11.174;2023-05-10T05:36:55;1.13;;;1.03;;
6177;SDS011;3122;48.208;11.174;2023-05-10T05:41:56;1.03;;;1.03;;
6177;SDS011;3122;48.208;11.174;2023-05-10T05:46:57;1.83;;;1.10;;
6177;SDS011;3122;48.208;11.174;2023-05-10T05:52:01;1.27;;;1.27;;
6177;SDS011;3122;48.208;11.174;2023-05-10T05:57:02;1.63;;;1.40;;
6177;SDS011;3122;48.208;11.174;2023-05-10T06:02:03;2.80;;;1.47;;
6177;SDS011;3122;48.208;11.174;2023-05-10T06:07:03;1.60;;;1.50;;
6177;SDS011;3122;48.208;11.174;2023-05-10T06:12:04;2.10;;;2.00;;
6177;SDS011;3122;48.208;11.174;2023-05-10T06:17:05;2.40;;;1.87;;
6177;SDS011;3122;48.208;11.174;2023-05-10T06:22:06;2.50;;;2.40;;
6177;SDS011;3122;48.208;11.174;2023-05-10T06:27:07;1.90;;;1.70;;
6177;SDS011;3122;48.208;11.174;2023-05-10T06:32:07;3.43;;;2.87;;
6177;SDS011;3122;48.208;11.174;2023-05-10T06:37:08;1.60;;;1.50;;
6177;SDS011;3122;48.208;11.174;2023-05-10T06:42:09;1.70;;;1.60;;
6177;SDS011;3122;48.208;11.174;2023-05-10T06:47:09;2.30;;;1.57;;
6177;SDS011;3122;48.208;11.174;2023-05-10T06:52:10;1.90;;;1.80;;
6177;SDS011;3122;48.208;11.174;2023-05-10T06:57:10;1.60;;;1.50;;
6177;SDS011;3122;48.208;11.174;2023-05-10T07:02:11;1.70;;;1.60;;
6177;SDS011;3122;48.208;11.174;2023-05-10T07:07:12;2.27;;;1.80;;
6177;SDS011;3122;48.208;11.174;2023-05-10T07:12:13;1.73;;;1.63;;
6177;SDS011;3122;48.208;11.174;2023-05-10T07:17:14;2.90;;;2.23;;
6177;SDS011;3122;48.208;11.174;2023-05-10T07:22:15;5.20;;;1.47;;
6177;SDS011;3122;48.208;11.174;2023-05-10T07:27:16;2.13;;;1.40;;
6177;SDS011;3122;48.208;11.174;2023-05-10T07:32:17;2.47;;;1.70;;
6177;SDS011;3122;48.208;11.174;2023-05-10T07:37:17;1.70;;;1.60;;
6177;SDS011;3122;48.208;11.174;2023-05-10T07:42:18;1.53;;;1.43;;
6177;SDS011;3122;48.208;11.174;2023-05-10T07:47:19;1.70;;;1.40;;
6177;SDS011;3122;48.208;11.174;2023-05-10T07:52:19;1.73;;;1.63;;
6177;SDS011;3122;48.208;11.174;2023-05-10T07:57:20;1.40;;;1.30;;
6177;SDS011;3122;48.208;11.174;2023-05-10T08:02:20;4.50;;;1.40;;
6177;SDS011;3122;48.208;11.174;2023-05-10T08:07:21;1.20;;;1.20;;
6177;SDS011;3122;48.208;11.174;2023-05-10T08:12:24;1.00;;;1.00;;
6177;SDS011;3122;48.208;11.174;2023-05-10T08:17:24;1.23;;;1.23;;
6177;SDS011;3122;48.208;11.174;2023-05-10T08:22:25;1.73;;;1.20;;
6177;SDS011;3122;48.208;11.174;2023-05-10T08:27:26;1.20;;;1.10;;
6177;SDS011;3122;48.208;11.174;2023-05-10T08:32:26;1.40;;;1.30;;
6177;SDS011;3122;48.208;11.174;2023-05-10T08:37:29;1.57;;;1.20;;
6177;SDS011;3122;48.208;11.174;2023-05-10T08:42:30;1.53;;;1.43;;
6177;SDS011;3122;48.208;11.174;2023-05-10T08:47:33;2.13;;;1.20;;
6177;SDS011;3122;48.208;11.174;2023-05-10T08:52:37;1.30;;;1.30;;
6177;SDS011;3122;48.208;11.174;2023-05-10T08:57:39;1.23;;;1.23;;
6177;SDS011;3122;48.208;11.174;2023-05-10T09:02:40;2.97;;;1.40;;
6177;SDS011;3122;48.208;11.174;2023-05-10T09:07:43;3.33;;;1.53;;
6177;SDS011;3122;48.208;11.174;2023-05-10T09:12:44;1.40;;;1.30;;
6177;SDS011;3122;48.208;11.174;2023-05-10T09:17:45;1.20;;;1.20;;
6177;SDS011;3122;48.208;11.174;2023-05-10T09:22:47;1.43;;;1.33;;
6177;SDS011;3122;48.208;11.174;2023-05-10T09:27:48;1.50;;;1.40;;
6177;SDS011;3122;48.208;11.174;2023-05-10T09:32:48;1.60;;;1.50;;
6177;SDS011;3122;48.208;11.174;2023-05-10T09:37:51;3.87;;;1.50;;
6177;SDS011;3122;48.208;11.174;2023-05-10T09:42:56;3.03;;;1.40;;
6177;SDS011;3122;48.208;11.174;2023-05-10T09:48:00;1.40;;;1.23;;
6177;SDS011;3122;48.208;11.174;2023-05-10T09:53:02;1.93;;;1.70;;
6177;SDS011;3122;48.208;11.174;2023-05-10T09:58:03;1.73;;;1.60;;
6177;SDS011;3122;48.208;11.174;2023-05-10T10:03:11;1.53;;;1.47;;
6177;SDS011;3122;48.208;11.174;2023-05-10T10:08:21;1.33;;;1.10;;
6177;SDS011;3122;48.208;11.174;2023-05-10T10:13:22;3.00;;;1.73;;
6177;SDS011;3122;48.208;11.174;2023-05-10T10:18:22;6.50;;;2.30;;
6177;SDS011;3122;48.208;11.174;2023-05-10T10:23:26;1.33;;;1.30;;
6177;SDS011;3122;48.208;11.174;2023-05-10T10:28:43;2.13;;;2.03;;
6177;SDS011;3122;48.208;11.174;2023-05-10T10:33:59;1.90;;;1.60;;
6177;SDS011;3122;48.208;11.174;2023-05-10T10:39:05;1.90;;;1.80;;
6177;SDS011;3122;48.208;11.174;2023-05-10T10:44:54;5.33;;;2.10;;
6177;SDS011;3122;48.208;11.174;2023-05-10T10:54:40;3.10;;;2.07;;
6177;SDS011;3122;48.208;11.174;2023-05-10T10:59:42;2.60;;;1.90;;
6177;SDS011;3122;48.208;11.174;2023-05-10T11:04:43;2.03;;;1.80;;
6177;SDS011;3122;48.208;11.174;2023-05-10T11:09:49;1.73;;;1.50;;
6177;SDS011;3122;48.208;11.174;2023-05-10T11:14:50;1.70;;;1.60;;
6177;SDS011;3122;48.208;11.174;2023-05-10T11:20:09;2.97;;;2.47;;
6177;SDS011;3122;48.208;11.174;2023-05-10T11:25:13;2.20;;;2.00;;
6177;SDS011;3122;48.208;11.174;2023-05-10T11:30:14;1.50;;;1.40;;
6177;SDS011;3122;48.208;11.174;2023-05-10T11:35:15;1.87;;;1.60;;
6177;SDS011;3122;48.208;11.174;2023-05-10T11:40:15;2.07;;;1.97;;
6177;SDS011;3122;48.208;11.174;2023-05-10T11:45:16;2.50;;;2.10;;
6177;SDS011;3122;48.208;11.174;2023-05-10T11:50:17;3.17;;;2.37;;
6177;SDS011;3122;48.208;11.174;2023-05-10T11:55:18;9.73;;;7.60;;
6177;SDS011;3122;48.208;11.174;2023-05-10T12:00:19;3.27;;;2.97;;
6177;SDS011;3122;48.208;11.174;2023-05-10T12:05:20;2.00;;;1.90;;
6177;SDS011;3122;48.208;11.174;2023-05-10T12:10:25;2.30;;;2.10;;
6177;SDS011;3122;48.208;11.174;2023-05-10T12:15:26;4.33;;;1.83;;
6177;SDS011;3122;48.208;11.174;2023-05-10T12:20:28;1.90;;;1.50;;
6177;SDS011;3122;48.208;11.174;2023-05-10T12:25:32;1.70;;;1.60;;
6177;SDS011;3122;48.208;11.174;2023-05-10T12:30:35;2.80;;;2.60;;
6177;SDS011;3122;48.208;11.174;2023-05-10T12:35:58;2.43;;;1.90;;
6177;SDS011;3122;48.208;11.174;2023-05-10T12:41:00;1.90;;;1.80;;
6177;SDS011;3122;48.208;11.174;2023-05-10T12:51:06;1.77;;;1.30;;
6177;SDS011;3122;48.208;11.174;2023-05-10T12:56:11;1.33;;;1.23;;
6177;SDS011;3122;48.208;11.174;2023-05-10T13:01:12;1.97;;;1.40;;
6177;SDS011;3122;48.208;11.174;2023-05-10T13:06:13;1.30;;;1.20;;
6177;SDS011;3122;48.208;11.174;2023-05-10T13:11:13;4.53;;;1.80;;
6177;SDS011;3122;48.208;11.174;2023-05-10T13:16:16;1.90;;;1.73;;
6177;SDS011;3122;48.208;11.174;2023-05-10T13:21:17;1.77;;;1.67;;
6177;SDS011;3122;48.208;11.174;2023-05-10T13:26:18;1.70;;;1.60;;
6177;SDS011;3122;48.208;11.174;2023-05-10T13:31:19;3.10;;;1.70;;
6177;SDS011;3122;48.208;11.174;2023-05-10T13:36:20;2.07;;;1.90;;
6177;SDS011;3122;48.208;11.174;2023-05-10T13:41:21;3.30;;;3.03;;
6177;SDS011;3122;48.208;11.174;2023-05-10T13:46:21;4.10;;;1.60;;
6177;SDS011;3122;48.208;11.174;2023-05-10T13:51:22;3.50;;;1.80;;
6177;SDS011;3122;48.208;11.174;2023-05-10T13:56:23;3.00;;;2.60;;
6177;SDS011;3122;48.208;11.174;2023-05-10T14:01:23;9.67;;;8.00;;
6177;SDS011;3122;48.208;11.174;2023-05-10T14:06:26;3.53;;;2.70;;
6177;SDS011;3122;48.208;11.174;2023-05-10T14:11:27;2.53;;;2.33;;
6177;SDS011;3122;48.208;11.174;2023-05-10T14:16:27;1.70;;;1.60;;
6177;SDS011;3122;48.208;11.174;2023-05-10T14:21:28;2.10;;;1.67;;
6177;SDS011;3122;48.208;11.174;2023-05-10T14:26:30;5.53;;;3.80;;
6177;SDS011;3122;48.208;11.174;2023-05-10T14:31:31;4.03;;;3.73;;
6177;SDS011;3122;48.208;11.174;2023-05-10T14:36:32;5.10;;;4.30;;
6177;SDS011;3122;48.208;11.174;2023-05-10T14:41:32;2.33;;;2.13;;
6177;SDS011;3122;48.208;11.174;2023-05-10T14:46:33;2.47;;;2.27;;
6177;SDS011;3122;48.208;11.174;2023-05-10T14:51:34;2.90;;;2.70;;
6177;SDS011;3122;48.208;11.174;2023-05-10T14:56:36;6.00;;;3.63;;
6177;SDS011;3122;48.208;11.174;2023-05-10T15:01:38;2.43;;;2.20;;
6177;SDS011;3122;48.208;11.174;2023-05-10T15:06:41;2.10;;;1.97;;
6177;SDS011;3122;48.208;11.174;2023-05-10T15:11:42;4.00;;;2.30;;
6177;SDS011;3122;48.208;11.174;2023-05-10T15:16:44;1.93;;;1.80;;
6177;SDS011;3122;48.208;11.174;2023-05-10T15:21:44;2.77;;;2.57;;
6177;SDS011;3122;48.208;11.174;2023-05-10T15:26:45;3.97;;;3.57;;
6177;SDS011;3122;48.208;11.174;2023-05-10T15:31:46;3.53;;;3.30;;
6177;SDS011;3122;48.208;11.174;2023-05-10T15:36:47;3.60;;;3.30;;
6177;SDS011;3122;48.208;11.174;2023-05-10T15:41:48;6.20;;;4.50;;
6177;SDS011;3122;48.208;11.174;2023-05-10T15:46:48;4.17;;;3.50;;
6177;SDS011;3122;48.208;11.174;2023-05-10T15:51:49;3.20;;;2.87;;
6177;SDS011;3122;48.208;11.174;2023-05-10T15:56:50;3.30;;;3.10;;
6177;SDS011;3122;48.208;11.174;2023-05-10T16:01:50;2.60;;;2.40;;
6177;SDS011;3122;48.208;11.174;2023-05-10T16:06:51;3.63;;;1.90;;
6177;SDS011;3122;48.208;11.174;2023-05-10T16:11:51;2.73;;;2.10;;
6177;SDS011;3122;48.208;11.174;2023-05-10T16:16:52;2.30;;;2.10;;
6177;SDS011;3122;48.208;11.174;2023-05-10T16:21:52;4.60;;;3.30;;
6177;SDS011;3122;48.208;11.174;2023-05-10T16:26:53;4.07;;;3.27;;
6177;SDS011;3122;48.208;11.174;2023-05-10T16:31:54;3.20;;;2.23;;
6177;SDS011;3122;48.208;11.174;2023-05-10T16:36:55;3.23;;;2.73;;
6177;SDS011;3122;48.208;11.174;2023-05-10T16:41:55;3.53;;;2.63;;
6177;SDS011;3122;48.208;11.174;2023-05-10T16:46:56;3.37;;;2.83;;
6177;SDS011;3122;48.208;11.174;2023-05-10T16:51:56;3.83;;;3.43;;
6177;SDS011;3122;48.208;11.174;2023-05-10T16:56:57;8.50;;;4.23;;
6177;SDS011;3122;48.208;11.174;2023-05-10T17:01:57;8.43;;;5.20;;
6177;SDS011;3122;48.208;11.174;2023-05-10T17:06:58;7.50;;;4.63;;
6177;SDS011;3122;48.208;11.174;2023-05-10T17:11:58;3.87;;;3.13;;
6177;SDS011;3122;48.208;11.174;2023-05-10T17:16:59;4.73;;;4.00;;
6177;SDS011;3122;48.208;11.174;2023-05-10T17:21:59;9.20;;;5.40;;
6177;SDS011;3122;48.208;11.174;2023-05-10T17:27:00;6.00;;;5.27;;
6177;SDS011;3122;48.208;11.174;2023-05-10T17:32:02;7.40;;;6.70;;
6177;SDS011;3122;48.208;11.174;2023-05-10T17:37:03;8.47;;;4.00;;
6177;SDS011;3122;48.208;11.174;2023-05-10T17:42:04;3.80;;;3.37;;
6177;SDS011;3122;48.208;11.174;2023-05-10T17:47:04;4.53;;;3.70;;
6177;SDS011;3122;48.208;11.174;2023-05-10T17:52:05;3.67;;;3.23;;
6177;SDS011;3122;48.208;11.174;2023-05-10T17:57:06;8.40;;;4.27;;
6177;SDS011;3122;48.208;11.174;2023-05-10T18:02:06;4.53;;;4.10;;
6177;SDS011;3122;48.208;11.174;2023-05-10T18:07:07;4.90;;;4.27;;
6177;SDS011;3122;48.208;11.174;2023-05-10T18:12:08;2.77;;;2.50;;
6177;SDS011;3122;48.208;11.174;2023-05-10T18:17:09;2.93;;;2.63;;
6177;SDS011;3122;48.208;11.174;2023-05-10T18:22:09;4.13;;;2.80;;
6177;SDS011;3122;48.208;11.174;2023-05-10T18:27:10;2.13;;;2.03;;
6177;SDS011;3122;48.208;11.174;2023-05-10T18:32:10;2.30;;;2.20;;
6177;SDS011;3122;48.208;11.174;2023-05-10T18:37:11;2.23;;;2.13;;
6177;SDS011;3122;48.208;11.174;2023-05-10T18:42:12;3.07;;;2.40;;
6177;SDS011;3122;48.208;11.174;2023-05-10T18:47:13;3.00;;;2.80;;
6177;SDS011;3122;48.208;11.174;2023-05-10T18:52:14;17.40;;;11.80;;
6177;SDS011;3122;48.208;11.174;2023-05-10T18:57:15;7.97;;;6.70;;
6177;SDS011;3122;48.208;11.174;2023-05-10T19:02:16;3.80;;;3.50;;
6177;SDS011;3122;48.208;11.174;2023-05-10T19:07:16;4.87;;;3.00;;
6177;SDS011;3122;48.208;11.174;2023-05-10T19:12:17;2.67;;;2.47;;
6177;SDS011;3122;48.208;11.174;2023-05-10T19:17:17;2.60;;;2.40;;
6177;SDS011;3122;48.208;11.174;2023-05-10T19:22:18;2.63;;;2.43;;
6177;SDS011;3122;48.208;11.174;2023-05-10T19:27:18;4.73;;;2.40;;
6177;SDS011;3122;48.208;11.174;2023-05-10T19:32:19;4.40;;;3.97;;
6177;SDS011;3122;48.208;11.174;2023-05-10T19:37:19;3.80;;;2.60;;
6177;SDS011;3122;48.208;11.174;2023-05-10T19:42:20;3.57;;;2.40;;
6177;SDS011;3122;48.208;11.174;2023-05-10T19:47:20;3.10;;;2.50;;
6177;SDS011;3122;48.208;11.174;2023-05-10T19:52:21;3.43;;;3.13;;
6177;SDS011;3122;48.208;11.174;2023-05-10T19:57:22;3.53;;;3.23;;
6177;SDS011;3122;48.208;11.174;2023-05-10T20:02:23;2.73;;;2.30;;
6177;SDS011;3122;48.208;11.174;2023-05-10T20:07:23;2.73;;;2.43;;
6177;SDS011;3122;48.208;11.174;2023-05-10T20:12:24;3.67;;;3.37;;
6177;SDS011;3122;48.208;11.174;2023-05-10T20:17:25;3.20;;;3.00;;
6177;SDS011;3122;48.208;11.174;2023-05-10T20:22:25;2.37;;;2.27;;
6177;SDS011;3122;48.208;11.174;2023-05-10T20:27:26;3.63;;;3.33;;
6177;SDS011;3122;48.208;11.174;2023-05-10T20:32:26;3.37;;;3.03;;
6177;SDS011;3122;48.208;11.174;2023-05-10T20:37:27;3.20;;;2.90;;
6177;SDS011;3122;48.208;11.174;2023-05-10T20:42:28;3.03;;;2.73;;
6177;SDS011;3122;48.208;11.174;2023-05-10T20:47:29;3.20;;;2.90;;
6177;SDS011;3122;48.208;11.174;2023-05-10T20:52:29;2.70;;;2.50;;
6177;SDS011;3122;48.208;11.174;2023-05-10T20:57:30;3.00;;;2.80;;
6177;SDS011;3122;48.208;11.174;2023-05-10T21:02:30;2.93;;;2.73;;
6177;SDS011;3122;48.208;11.174;2023-05-10T21:07:31;2.70;;;2.50;;
6177;SDS011;3122;48.208;11.174;2023-05-10T21:12:32;2.27;;;2.07;;
6177;SDS011;3122;48.208;11.174;2023-05-10T21:17:32;2.17;;;2.00;;
6177;SDS011;3122;48.208;11.174;2023-05-10T21:22:33;3.93;;;2.40;;
6177;SDS011;3122;48.208;11.174;2023-05-10T21:27:33;2.80;;;2.10;;
6177;SDS011;3122;48.208;11.174;2023-05-10T21:32:34;2.50;;;2.30;;
6177;SDS011;3122;48.208;11.174;2023-05-10T21:37:35;2.00;;;1.90;;
6177;SDS011;3122;48.208;11.174;2023-05-10T21:42:36;3.33;;;2.30;;
6177;SDS011;3122;48.208;11.174;2023-05-10T21:47:36;2.27;;;2.07;;
6177;SDS011;3122;48.208;11.174;2023-05-10T21:52:37;2.37;;;2.27;;
6177;SDS011;3122;48.208;11.174;2023-05-10T21:57:38;2.40;;;2.20;;
6177;SDS011;3122;48.208;11.174;2023-05-10T22:02:40;2.57;;;2.37;;
6177;SDS011;3122;48.208;11.174;2023-05-10T22:07:40;2.10;;;2.00;;
6177;SDS011;3122;48.208;11.174;2023-05-10T22:12:41;2.83;;;2.57;;
6177;SDS011;3122;48.208;11.174;2023-05-10T22:17:41;2.40;;;2.30;;
6177;SDS011;3122;48.208;11.174;2023-05-10T22:22:42;3.43;;;2.63;;
6177;SDS011;3122;48.208;11.174;2023-05-10T22:27:44;7.13;;;2.47;;
6177;SDS011;3122;48.208;11.174;2023-05-10T22:32:44;2.50;;;2.33;;
6177;SDS011;3122;48.208;11.174;2023-05-10T22:37:45;2.37;;;2.27;;
6177;SDS011;3122;48.208;11.174;2023-05-10T22:42:46;3.70;;;2.40;;
6177;SDS011;3122;48.208;11.174;2023-05-10T22:47:46;2.60;;;2.40;;
6177;SDS011;3122;48.208;11.174;2023-05-10T22:52:47;3.17;;;2.50;;
6177;SDS011;3122;48.208;11.174;2023-05-10T22:57:47;3.50;;;2.80;;
6177;SDS011;3122;48.208;11.174;2023-05-10T23:02:48;2.73;;;2.40;;
6177;SDS011;3122;48.208;11.174;2023-05-10T23:07:48;2.77;;;2.60;;
6177;SDS011;3122;48.208;11.174;2023-05-10T23:12:52;4.13;;;2.60;;
6177;SDS011;3122;48.208;11.174;2023-05-10T23:17:54;2.83;;;2.50;;
6177;SDS011;3122;48.208;11.174;2023-05-10T23:22:55;2.90;;;2.70;;
6177;SDS011;3122;48.208;11.174;2023-05-10T23:27:56;2.90;;;2.67;;
6177;SDS011;3122;48.208;11.174;2023-05-10T23:32:56;2.83;;;2.33;;
6177;SDS011;3122;48.208;11.174;2023-05-10T23:37:57;2.67;;;2.47;;
6177;SDS011;3122;48.208;11.174;2023-05-10T23:42:57;2.63;;;2.43;;
6177;SDS011;3122;48.208;11.174;2023-05-10T23:47:58;2.53;;;2.43;;
6177;SDS011;3122;48.208;11.174;2023-05-10T23:52:58;2.70;;;2.50;;
6177;SDS011;3122;48.208;11.174;2023-05-10T23:57:59;3.27;;;2.37;;
